sensor_id;sensor_type;location;lat;lon;timestamp;pressure;altitude;pressure_sealevel;temperature;humidity
15568;BME280;7885;42.596;23.044;2023-04-26T00:01:31;92053.34;;;9.29;100.00
15568;BME280;7885;42.596;23.044;2023-04-26T00:03:59;92047.19;;;9.25;100.00
15568;BME280;7885;42.596;23.044;2023-04-26T00:06:27;92046.31;;;9.32;100.00
15568;BME280;7885;42.596;23.044;2023-04-26T00:08:55;92033.44;;;9.09;100.00
15568;BME280;7885;42.596;23.044;2023-04-26T00:11:22;92039.91;;;9.19;100.00
15568;BME280;7885;42.596;23.044;2023-04-26T00:13:48;92041.09;;;9.14;100.00
15568;BME280;7885;42.596;23.044;2023-04-26T00:16:15;92039.72;;;9.02;100.00
15568;BME280;7885;42.596;23.044;2023-04-26T00:18:42;92031.28;;;8.93;100.00
15568;BME280;7885;42.596;23.044;2023-04-26T00:21:10;92028.19;;;8.91;100.00
15568;BME280;7885;42.596;23.044;2023-04-26T00:23:37;92031.72;;;8.88;100.00
15568;BME280;7885;42.596;23.044;2023-04-26T00:26:05;92025.19;;;8.86;100.00
15568;BME280;7885;42.596;23.044;2023-04-26T00:28:32;92031.38;;;8.83;100.00
15568;BME280;7885;42.596;23.044;2023-04-26T00:30:58;92026.69;;;8.87;100.00
15568;BME280;7885;42.596;23.044;2023-04-26T00:33:25;92025.88;;;8.90;100.00
15568;BME280;7885;42.596;23.044;2023-04-26T00:35:52;92037.94;;;8.89;100.00
15568;BME280;7885;42.596;23.044;2023-04-26T00:38:19;92037.22;;;8.81;100.00
15568;BME280;7885;42.596;23.044;2023-04-26T00:40:46;92031.88;;;8.74;100.00
15568;BME280;7885;42.596;23.044;2023-04-26T00:43:14;92014.56;;;8.65;100.00
15568;BME280;7885;42.596;23.044;2023-04-26T00:45:40;92022.97;;;8.74;100.00
15568;BME280;7885;42.596;23.044;2023-04-26T00:48:07;92023.72;;;8.78;100.00
15568;BME280;7885;42.596;23.044;2023-04-26T00:50:34;92022.94;;;8.77;100.00
15568;BME280;7885;42.596;23.044;2023-04-26T00:53:01;92027.59;;;8.77;100.00
15568;BME280;7885;42.596;23.044;2023-04-26T00:55:29;92033.84;;;8.70;100.00
15568;BME280;7885;42.596;23.044;2023-04-26T00:57:56;92028.41;;;8.74;100.00
15568;BME280;7885;42.596;23.044;2023-04-26T01:00:24;92031.47;;;8.76;100.00
15568;BME280;7885;42.596;23.044;2023-04-26T01:02:52;92026.78;;;8.80;100.00
15568;BME280;7885;42.596;23.044;2023-04-26T01:05:19;92022.94;;;8.77;100.00
15568;BME280;7885;42.596;23.044;2023-04-26T01:07:45;92024.38;;;8.89;100.00
15568;BME280;7885;42.596;23.044;2023-04-26T01:10:12;92027.44;;;8.91;100.00
15568;BME280;7885;42.596;23.044;2023-04-26T01:12:39;92014.25;;;8.93;100.00
15568;BME280;7885;42.596;23.044;2023-04-26T01:15:07;92012.34;;;8.86;100.00
15568;BME280;7885;42.596;23.044;2023-04-26T01:17:35;92022.00;;;8.91;100.00
15568;BME280;7885;42.596;23.044;2023-04-26T01:20:03;92027.06;;;8.89;100.00
15568;BME280;7885;42.596;23.044;2023-04-26T01:22:33;92035.22;;;8.89;100.00
15568;BME280;7885;42.596;23.044;2023-04-26T01:25:00;92033.63;;;8.91;100.00
15568;BME280;7885;42.596;23.044;2023-04-26T01:27:30;92038.28;;;8.91;100.00
15568;BME280;7885;42.596;23.044;2023-04-26T01:29:56;92039.03;;;8.95;100.00
15568;BME280;7885;42.596;23.044;2023-04-26T01:32:23;92045.56;;;8.97;100.00
15568;BME280;7885;42.596;23.044;2023-04-26T01:34:50;92039.88;;;8.88;100.00
15568;BME280;7885;42.596;23.044;2023-04-26T01:37:16;92041.53;;;8.79;100.00
15568;BME280;7885;42.596;23.044;2023-04-26T01:39:44;92026.09;;;8.72;100.00
15568;BME280;7885;42.596;23.044;2023-04-26T01:42:11;92028.25;;;8.88;100.00
15568;BME280;7885;42.596;23.044;2023-04-26T01:44:38;92020.50;;;8.86;100.00
15568;BME280;7885;42.596;23.044;2023-04-26T01:50:27;92021.16;;;8.97;100.00
15568;BME280;7885;42.596;23.044;2023-04-26T01:52:54;92023.22;;;8.86;100.00
15568;BME280;7885;42.596;23.044;2023-04-26T01:55:22;92010.06;;;8.85;100.00
15568;BME280;7885;42.596;23.044;2023-04-26T01:57:48;92013.63;;;8.78;100.00
15568;BME280;7885;42.596;23.044;2023-04-26T02:00:15;92024.53;;;8.75;100.00
15568;BME280;7885;42.596;23.044;2023-04-26T02:02:42;92028.44;;;8.70;100.00
15568;BME280;7885;42.596;23.044;2023-04-26T02:05:09;92024.63;;;8.64;100.00
15568;BME280;7885;42.596;23.044;2023-04-26T02:07:36;92016.88;;;8.62;100.00
15568;BME280;7885;42.596;23.044;2023-04-26T02:10:03;92014.63;;;8.57;100.00
15568;BME280;7885;42.596;23.044;2023-04-26T02:12:32;92022.31;;;8.62;100.00
15568;BME280;7885;42.596;23.044;2023-04-26T02:14:58;92026.88;;;8.69;100.00
15568;BME280;7885;42.596;23.044;2023-04-26T02:17:25;92027.59;;;8.77;100.00
15568;BME280;7885;42.596;23.044;2023-04-26T02:19:53;92022.91;;;8.81;100.00
15568;BME280;7885;42.596;23.044;2023-04-26T02:22:20;92014.31;;;8.86;100.00
15568;BME280;7885;42.596;23.044;2023-04-26T02:24:50;92001.97;;;8.81;100.00
15568;BME280;7885;42.596;23.044;2023-04-26T02:27:17;92009.53;;;8.97;100.00
15568;BME280;7885;42.596;23.044;2023-04-26T02:29:45;92017.97;;;9.06;100.00
15568;BME280;7885;42.596;23.044;2023-04-26T02:32:12;92006.72;;;9.04;100.00
15568;BME280;7885;42.596;23.044;2023-04-26T02:34:39;91990.72;;;9.13;100.00
15568;BME280;7885;42.596;23.044;2023-04-26T02:37:07;91978.69;;;9.14;100.00
15568;BME280;7885;42.596;23.044;2023-04-26T02:39:34;91986.69;;;9.25;100.00
15568;BME280;7885;42.596;23.044;2023-04-26T02:42:01;91962.03;;;9.12;100.00
15568;BME280;7885;42.596;23.044;2023-04-26T02:44:28;91973.88;;;9.25;100.00
15568;BME280;7885;42.596;23.044;2023-04-26T02:46:58;91963.50;;;9.20;100.00
15568;BME280;7885;42.596;23.044;2023-04-26T02:49:24;91971.16;;;9.25;100.00
15568;BME280;7885;42.596;23.044;2023-04-26T02:51:51;91964.28;;;9.17;100.00
15568;BME280;7885;42.596;23.044;2023-04-26T02:54:18;91961.94;;;9.19;100.00
15568;BME280;7885;42.596;23.044;2023-04-26T02:56:45;91966.56;;;9.22;100.00
15568;BME280;7885;42.596;23.044;2023-04-26T02:59:11;91965.00;;;9.21;100.00
15568;BME280;7885;42.596;23.044;2023-04-26T03:01:38;91960.31;;;9.25;100.00
15568;BME280;7885;42.596;23.044;2023-04-26T03:04:06;91958.41;;;9.22;100.00
15568;BME280;7885;42.596;23.044;2023-04-26T03:06:33;91963.44;;;9.24;100.00
15568;BME280;7885;42.596;23.044;2023-04-26T03:09:00;91976.44;;;9.09;100.00
15568;BME280;7885;42.596;23.044;2023-04-26T03:11:26;91960.69;;;8.97;100.00
15568;BME280;7885;42.596;23.044;2023-04-26T03:13:53;91971.53;;;8.97;100.00
15568;BME280;7885;42.596;23.044;2023-04-26T03:16:21;91973.16;;;8.91;100.00
15568;BME280;7885;42.596;23.044;2023-04-26T03:18:48;91965.75;;;8.95;100.00
15568;BME280;7885;42.596;23.044;2023-04-26T03:21:16;91970.03;;;8.96;100.00
15568;BME280;7885;42.596;23.044;2023-04-26T03:23:42;91967.66;;;8.98;100.00
15568;BME280;7885;42.596;23.044;2023-04-26T03:26:09;91970.72;;;9.00;100.00
15568;BME280;7885;42.596;23.044;2023-04-26T03:28:36;91962.22;;;8.98;100.00
15568;BME280;7885;42.596;23.044;2023-04-26T03:31:03;91971.44;;;9.04;100.00
15568;BME280;7885;42.596;23.044;2023-04-26T03:33:30;91970.63;;;9.07;100.00
15568;BME280;7885;42.596;23.044;2023-04-26T03:35:57;91981.88;;;9.09;100.00
15568;BME280;7885;42.596;23.044;2023-04-26T03:38:25;91972.56;;;9.10;100.00
15568;BME280;7885;42.596;23.044;2023-04-26T03:40:52;91976.34;;;9.16;100.00
15568;BME280;7885;42.596;23.044;2023-04-26T03:43:18;91977.16;;;9.13;100.00
15568;BME280;7885;42.596;23.044;2023-04-26T03:45:46;91969.72;;;9.17;100.00
15568;BME280;7885;42.596;23.044;2023-04-26T03:48:14;91975.81;;;9.25;100.00
15568;BME280;7885;42.596;23.044;2023-04-26T03:50:41;91987.31;;;9.36;100.00
15568;BME280;7885;42.596;23.044;2023-04-26T03:53:09;91994.25;;;9.40;100.00
15568;BME280;7885;42.596;23.044;2023-04-26T03:55:37;91991.81;;;9.46;100.00
15568;BME280;7885;42.596;23.044;2023-04-26T03:58:03;92002.28;;;9.47;100.00
15568;BME280;7885;42.596;23.044;2023-04-26T04:00:32;92003.47;;;9.46;100.00
15568;BME280;7885;42.596;23.044;2023-04-26T04:02:59;91996.38;;;9.52;100.00
15568;BME280;7885;42.596;23.044;2023-04-26T04:05:25;92006.44;;;9.55;100.00
15568;BME280;7885;42.596;23.044;2023-04-26T04:07:52;92000.94;;;9.59;100.00
15568;BME280;7885;42.596;23.044;2023-04-26T04:10:20;92000.03;;;9.42;100.00
15568;BME280;7885;42.596;23.044;2023-04-26T04:12:49;92008.50;;;9.48;100.00
15568;BME280;7885;42.596;23.044;2023-04-26T04:15:17;92008.44;;;9.51;100.00
15568;BME280;7885;42.596;23.044;2023-04-26T04:17:45;92008.84;;;9.50;100.00
15568;BME280;7885;42.596;23.044;2023-04-26T04:20:12;92012.69;;;9.52;100.00
15568;BME280;7885;42.596;23.044;2023-04-26T04:22:39;92014.94;;;9.57;100.00
15568;BME280;7885;42.596;23.044;2023-04-26T04:25:06;92019.66;;;9.53;100.00
15568;BME280;7885;42.596;23.044;2023-04-26T04:27:34;92009.16;;;9.55;100.00
15568;BME280;7885;42.596;23.044;2023-04-26T04:30:05;92011.09;;;9.55;100.00
15568;BME280;7885;42.596;23.044;2023-04-26T04:32:33;92015.69;;;9.61;100.00
15568;BME280;7885;42.596;23.044;2023-04-26T04:35:00;92019.47;;;9.68;100.00
15568;BME280;7885;42.596;23.044;2023-04-26T04:37:27;92006.44;;;9.55;100.00
15568;BME280;7885;42.596;23.044;2023-04-26T04:39:54;92014.47;;;9.62;100.00
15568;BME280;7885;42.596;23.044;2023-04-26T04:42:21;92027.47;;;9.78;100.00
15568;BME280;7885;42.596;23.044;2023-04-26T04:44:47;92031.66;;;9.83;100.00
15568;BME280;7885;42.596;23.044;2023-04-26T04:47:15;92032.75;;;9.89;100.00
15568;BME280;7885;42.596;23.044;2023-04-26T04:49:43;92029.31;;;9.85;100.00
15568;BME280;7885;42.596;23.044;2023-04-26T04:52:10;92026.94;;;9.87;100.00
15568;BME280;7885;42.596;23.044;2023-04-26T04:54:36;92032.22;;;9.97;100.00
15568;BME280;7885;42.596;23.044;2023-04-26T04:57:04;92038.38;;;10.01;100.00
15568;BME280;7885;42.596;23.044;2023-04-26T04:59:31;92042.97;;;10.04;100.00
15568;BME280;7885;42.596;23.044;2023-04-26T05:01:57;92042.19;;;10.04;100.00
15568;BME280;7885;42.596;23.044;2023-04-26T05:04:25;92044.88;;;10.07;100.00
15568;BME280;7885;42.596;23.044;2023-04-26T05:06:52;92036.72;;;10.07;100.00
15568;BME280;7885;42.596;23.044;2023-04-26T05:12:40;92040.56;;;10.10;100.00
15568;BME280;7885;42.596;23.044;2023-04-26T05:15:08;92043.28;;;10.10;100.00
15568;BME280;7885;42.596;23.044;2023-04-26T05:17:34;92034.75;;;10.08;100.00
15568;BME280;7885;42.596;23.044;2023-04-26T05:20:03;92025.06;;;10.07;100.00
15568;BME280;7885;42.596;23.044;2023-04-26T05:22:31;92042.78;;;10.19;100.00
15568;BME280;7885;42.596;23.044;2023-04-26T05:24:59;92044.69;;;10.22;100.00
15568;BME280;7885;42.596;23.044;2023-04-26T05:27:27;92048.88;;;10.26;100.00
15568;BME280;7885;42.596;23.044;2023-04-26T05:29:54;92044.22;;;10.27;100.00
15568;BME280;7885;42.596;23.044;2023-04-26T05:32:20;92026.75;;;10.24;100.00
15568;BME280;7885;42.596;23.044;2023-04-26T05:34:47;92031.75;;;10.29;100.00
15568;BME280;7885;42.596;23.044;2023-04-26T05:37:15;92045.56;;;10.38;100.00
15568;BME280;7885;42.596;23.044;2023-04-26T05:39:42;92040.78;;;10.46;100.00
15568;BME280;7885;42.596;23.044;2023-04-26T05:42:09;92044.16;;;10.53;100.00
15568;BME280;7885;42.596;23.044;2023-04-26T05:44:36;92048.63;;;10.63;100.00
15568;BME280;7885;42.596;23.044;2023-04-26T05:47:02;92048.03;;;10.76;100.00
15568;BME280;7885;42.596;23.044;2023-04-26T05:49:29;92050.16;;;10.88;100.00
15568;BME280;7885;42.596;23.044;2023-04-26T05:51:57;92041.72;;;11.02;100.00
15568;BME280;7885;42.596;23.044;2023-04-26T05:54:26;92057.84;;;11.12;100.00
15568;BME280;7885;42.596;23.044;2023-04-26T05:56:52;92065.69;;;11.30;100.00
15568;BME280;7885;42.596;23.044;2023-04-26T05:59:19;92064.41;;;11.54;100.00
15568;BME280;7885;42.596;23.044;2023-04-26T06:01:46;92060.16;;;11.53;100.00
15568;BME280;7885;42.596;23.044;2023-04-26T06:04:13;92067.00;;;11.81;100.00
15568;BME280;7885;42.596;23.044;2023-04-26T06:06:39;92072.69;;;12.06;100.00
15568;BME280;7885;42.596;23.044;2023-04-26T06:09:07;92069.34;;;12.31;100.00
15568;BME280;7885;42.596;23.044;2023-04-26T06:11:35;92059.03;;;12.39;99.49
15568;BME280;7885;42.596;23.044;2023-04-26T06:14:02;92072.28;;;12.56;98.54
15568;BME280;7885;42.596;23.044;2023-04-26T06:16:29;92062.22;;;12.53;96.97
15568;BME280;7885;42.596;23.044;2023-04-26T06:18:55;92070.56;;;12.62;94.82
15568;BME280;7885;42.596;23.044;2023-04-26T06:21:22;92075.84;;;12.70;94.38
15568;BME280;7885;42.596;23.044;2023-04-26T06:23:49;92079.78;;;12.69;93.59
15568;BME280;7885;42.596;23.044;2023-04-26T06:26:16;92079.50;;;12.79;93.68
15568;BME280;7885;42.596;23.044;2023-04-26T06:28:44;92070.81;;;12.84;94.11
15568;BME280;7885;42.596;23.044;2023-04-26T06:31:10;92074.81;;;12.80;94.51
15568;BME280;7885;42.596;23.044;2023-04-26T06:33:37;92078.91;;;12.88;94.10
15568;BME280;7885;42.596;23.044;2023-04-26T06:36:04;92080.09;;;12.87;94.41
15568;BME280;7885;42.596;23.044;2023-04-26T06:38:35;92057.25;;;12.64;93.20
15568;BME280;7885;42.596;23.044;2023-04-26T06:41:02;92082.22;;;12.79;92.70
15568;BME280;7885;42.596;23.044;2023-04-26T06:43:28;92091.38;;;12.73;91.65
15568;BME280;7885;42.596;23.044;2023-04-26T06:45:56;92093.06;;;12.66;93.27
15568;BME280;7885;42.596;23.044;2023-04-26T06:48:23;92095.56;;;12.61;92.42
15568;BME280;7885;42.596;23.044;2023-04-26T06:50:50;92096.50;;;12.54;92.82
15568;BME280;7885;42.596;23.044;2023-04-26T06:53:17;92099.56;;;12.56;93.57
15568;BME280;7885;42.596;23.044;2023-04-26T06:55:43;92102.91;;;12.48;92.99
15568;BME280;7885;42.596;23.044;2023-04-26T06:58:10;92099.13;;;12.42;92.49
15568;BME280;7885;42.596;23.044;2023-04-26T07:07:22;92115.97;;;11.85;86.15
15568;BME280;7885;42.596;23.044;2023-04-26T07:09:48;92122.84;;;11.93;86.88
15568;BME280;7885;42.596;23.044;2023-04-26T07:12:15;92114.06;;;12.01;85.36
15568;BME280;7885;42.596;23.044;2023-04-26T07:14:42;92126.00;;;12.07;85.46
15568;BME280;7885;42.596;23.044;2023-04-26T07:17:09;92132.66;;;12.06;82.31
15568;BME280;7885;42.596;23.044;2023-04-26T07:19:36;92131.75;;;12.13;82.09
15568;BME280;7885;42.596;23.044;2023-04-26T07:22:03;92116.03;;;12.17;81.27
15568;BME280;7885;42.596;23.044;2023-04-26T07:24:31;92130.09;;;12.51;79.90
15568;BME280;7885;42.596;23.044;2023-04-26T07:26:57;92125.34;;;12.72;79.17
15568;BME280;7885;42.596;23.044;2023-04-26T07:29:25;92126.50;;;12.87;76.18
15568;BME280;7885;42.596;23.044;2023-04-26T07:31:52;92134.91;;;13.12;76.77
15568;BME280;7885;42.596;23.044;2023-04-26T07:34:18;92124.28;;;13.30;76.12
15568;BME280;7885;42.596;23.044;2023-04-26T07:36:45;92124.91;;;13.50;76.14
15568;BME280;7885;42.596;23.044;2023-04-26T07:39:13;92120.06;;;13.71;74.02
15568;BME280;7885;42.596;23.044;2023-04-26T07:41:41;92124.25;;;13.88;73.51
15568;BME280;7885;42.596;23.044;2023-04-26T07:44:09;92128.06;;;13.78;72.61
15568;BME280;7885;42.596;23.044;2023-04-26T07:46:35;92134.03;;;14.01;73.68
15568;BME280;7885;42.596;23.044;2023-04-26T07:49:02;92126.81;;;14.07;72.81
15568;BME280;7885;42.596;23.044;2023-04-26T07:51:29;92130.44;;;14.17;72.46
15568;BME280;7885;42.596;23.044;2023-04-26T07:53:56;92137.66;;;14.11;69.88
15568;BME280;7885;42.596;23.044;2023-04-26T07:56:23;92133.94;;;13.63;70.00
15568;BME280;7885;42.596;23.044;2023-04-26T07:58:51;92138.19;;;13.64;69.31
15568;BME280;7885;42.596;23.044;2023-04-26T08:01:18;92125.03;;;13.59;67.98
15568;BME280;7885;42.596;23.044;2023-04-26T08:03:44;92133.31;;;13.43;69.61
15568;BME280;7885;42.596;23.044;2023-04-26T08:06:13;92132.66;;;13.23;69.75
15568;BME280;7885;42.596;23.044;2023-04-26T08:08:40;92122.16;;;13.22;70.80
15568;BME280;7885;42.596;23.044;2023-04-26T08:11:09;92125.25;;;13.52;71.11
15568;BME280;7885;42.596;23.044;2023-04-26T08:13:36;92131.28;;;13.60;69.62
15568;BME280;7885;42.596;23.044;2023-04-26T08:16:04;92132.94;;;13.57;67.20
15568;BME280;7885;42.596;23.044;2023-04-26T08:18:31;92132.25;;;13.53;68.18
15568;BME280;7885;42.596;23.044;2023-04-26T08:20:58;92124.47;;;13.81;68.60
15568;BME280;7885;42.596;23.044;2023-04-26T08:23:25;92117.44;;;13.80;65.56
15568;BME280;7885;42.596;23.044;2023-04-26T08:25:52;92121.84;;;13.90;63.52
15568;BME280;7885;42.596;23.044;2023-04-26T08:28:19;92127.28;;;13.77;64.73
15568;BME280;7885;42.596;23.044;2023-04-26T08:30:46;92125.81;;;14.01;64.49
15568;BME280;7885;42.596;23.044;2023-04-26T08:33:14;92126.97;;;14.29;63.09
15568;BME280;7885;42.596;23.044;2023-04-26T08:35:43;92109.59;;;14.36;63.11
15568;BME280;7885;42.596;23.044;2023-04-26T08:38:10;92124.38;;;14.38;62.02
15568;BME280;7885;42.596;23.044;2023-04-26T08:40:37;92112.97;;;14.52;62.65
15568;BME280;7885;42.596;23.044;2023-04-26T08:43:03;92124.25;;;14.92;63.34
15568;BME280;7885;42.596;23.044;2023-04-26T08:45:33;92124.78;;;15.00;60.66
15568;BME280;7885;42.596;23.044;2023-04-26T08:48:02;92110.75;;;14.98;61.45
15568;BME280;7885;42.596;23.044;2023-04-26T08:50:35;92126.97;;;15.05;60.57
15568;BME280;7885;42.596;23.044;2023-04-26T08:53:04;92129.00;;;15.26;61.07
15568;BME280;7885;42.596;23.044;2023-04-26T08:55:32;92123.94;;;15.37;59.95
15568;BME280;7885;42.596;23.044;2023-04-26T08:58:01;92124.25;;;15.39;60.57
15568;BME280;7885;42.596;23.044;2023-04-26T09:00:28;92122.63;;;15.29;61.43
15568;BME280;7885;42.596;23.044;2023-04-26T09:02:55;92121.66;;;15.23;60.15
15568;BME280;7885;42.596;23.044;2023-04-26T09:05:22;92119.28;;;15.47;60.11
15568;BME280;7885;42.596;23.044;2023-04-26T09:07:55;92119.06;;;15.07;58.45
15568;BME280;7885;42.596;23.044;2023-04-26T09:10:23;92125.13;;;15.36;60.74
15568;BME280;7885;42.596;23.044;2023-04-26T09:12:51;92116.66;;;15.43;59.59
15568;BME280;7885;42.596;23.044;2023-04-26T09:15:19;92125.88;;;15.49;59.51
15568;BME280;7885;42.596;23.044;2023-04-26T09:17:46;92117.66;;;15.49;59.74
15568;BME280;7885;42.596;23.044;2023-04-26T09:20:19;92120.84;;;15.35;59.62
15568;BME280;7885;42.596;23.044;2023-04-26T09:22:47;92122.94;;;15.78;60.12
15568;BME280;7885;42.596;23.044;2023-04-26T09:25:17;92132.13;;;15.84;58.83
15568;BME280;7885;42.596;23.044;2023-04-26T09:27:44;92123.94;;;16.15;57.60
15568;BME280;7885;42.596;23.044;2023-04-26T09:30:13;92134.53;;;16.26;56.81
15568;BME280;7885;42.596;23.044;2023-04-26T09:33:00;92122.72;;;16.16;57.26
15568;BME280;7885;42.596;23.044;2023-04-26T09:35:29;92125.94;;;16.45;55.30
15568;BME280;7885;42.596;23.044;2023-04-26T09:37:58;92132.44;;;16.60;54.42
15568;BME280;7885;42.596;23.044;2023-04-26T09:40:28;92124.72;;;16.46;55.37
15568;BME280;7885;42.596;23.044;2023-04-26T09:43:00;92106.97;;;16.38;54.56
15568;BME280;7885;42.596;23.044;2023-04-26T09:49:00;92107.56;;;17.04;53.62
15568;BME280;7885;42.596;23.044;2023-04-26T09:51:27;92112.47;;;17.18;51.71
15568;BME280;7885;42.596;23.044;2023-04-26T09:53:54;92100.66;;;16.90;51.78
15568;BME280;7885;42.596;23.044;2023-04-26T09:56:22;92111.66;;;16.90;53.40
15568;BME280;7885;42.596;23.044;2023-04-26T09:58:57;92115.63;;;16.89;52.41
15568;BME280;7885;42.596;23.044;2023-04-26T10:01:26;92112.38;;;17.49;52.50
15568;BME280;7885;42.596;23.044;2023-04-26T10:03:54;92111.97;;;17.78;51.35
15568;BME280;7885;42.596;23.044;2023-04-26T10:06:22;92111.06;;;17.99;49.81
15568;BME280;7885;42.596;23.044;2023-04-26T10:12:13;92090.22;;;18.16;48.38
15568;BME280;7885;42.596;23.044;2023-04-26T10:14:41;92096.91;;;18.33;49.82
15568;BME280;7885;42.596;23.044;2023-04-26T10:17:08;92102.50;;;17.60;48.91
15568;BME280;7885;42.596;23.044;2023-04-26T10:19:38;92089.75;;;17.36;50.43
15568;BME280;7885;42.596;23.044;2023-04-26T10:22:08;92107.53;;;16.95;49.06
15568;BME280;7885;42.596;23.044;2023-04-26T10:24:36;92105.56;;;16.55;49.99
15568;BME280;7885;42.596;23.044;2023-04-26T10:27:02;92100.91;;;16.43;49.72
15568;BME280;7885;42.596;23.044;2023-04-26T10:30:08;92100.34;;;15.96;52.15
15568;BME280;7885;42.596;23.044;2023-04-26T10:33:11;92095.16;;;15.54;52.78
15568;BME280;7885;42.596;23.044;2023-04-26T10:36:05;92102.56;;;15.32;53.12
15568;BME280;7885;42.596;23.044;2023-04-26T10:38:32;92102.31;;;15.39;54.33
15568;BME280;7885;42.596;23.044;2023-04-26T10:41:31;92104.38;;;15.48;53.26
15568;BME280;7885;42.596;23.044;2023-04-26T10:44:00;92099.88;;;15.41;52.55
15568;BME280;7885;42.596;23.044;2023-04-26T10:46:50;92096.06;;;15.51;52.38
15568;BME280;7885;42.596;23.044;2023-04-26T10:49:18;92102.19;;;15.43;50.91
15568;BME280;7885;42.596;23.044;2023-04-26T10:52:09;92094.28;;;15.57;51.30
15568;BME280;7885;42.596;23.044;2023-04-26T10:54:51;92094.59;;;15.59;50.63
15568;BME280;7885;42.596;23.044;2023-04-26T10:57:18;92086.34;;;15.59;50.22
15568;BME280;7885;42.596;23.044;2023-04-26T11:00:17;92094.97;;;15.71;51.09
15568;BME280;7885;42.596;23.044;2023-04-26T11:03:08;92100.97;;;16.00;52.48
15568;BME280;7885;42.596;23.044;2023-04-26T11:05:53;92095.03;;;15.80;52.08
15568;BME280;7885;42.596;23.044;2023-04-26T11:08:23;92096.25;;;15.57;53.46
15568;BME280;7885;42.596;23.044;2023-04-26T11:10:56;92084.69;;;15.28;51.77
15568;BME280;7885;42.596;23.044;2023-04-26T11:13:23;92101.88;;;15.06;52.98
15568;BME280;7885;42.596;23.044;2023-04-26T11:15:58;92102.84;;;15.00;53.93
15568;BME280;7885;42.596;23.044;2023-04-26T11:18:29;92081.75;;;14.62;54.96
15568;BME280;7885;42.596;23.044;2023-04-26T11:20:56;92106.19;;;14.82;56.19
15568;BME280;7885;42.596;23.044;2023-04-26T11:23:23;92101.81;;;14.59;56.73
15568;BME280;7885;42.596;23.044;2023-04-26T11:25:50;92107.72;;;14.45;57.46
15568;BME280;7885;42.596;23.044;2023-04-26T11:28:19;92101.09;;;14.05;58.05
15568;BME280;7885;42.596;23.044;2023-04-26T11:30:48;92104.59;;;14.05;58.77
15568;BME280;7885;42.596;23.044;2023-04-26T11:36:38;92111.22;;;14.33;58.83
15568;BME280;7885;42.596;23.044;2023-04-26T11:39:05;92108.59;;;14.42;59.15
15568;BME280;7885;42.596;23.044;2023-04-26T11:41:32;92099.75;;;14.51;57.55
15568;BME280;7885;42.596;23.044;2023-04-26T11:43:59;92113.97;;;14.58;57.24
15568;BME280;7885;42.596;23.044;2023-04-26T11:46:26;92114.09;;;14.68;57.50
15568;BME280;7885;42.596;23.044;2023-04-26T11:48:53;92114.41;;;14.70;55.83
15568;BME280;7885;42.596;23.044;2023-04-26T11:51:20;92108.81;;;14.60;56.50
15568;BME280;7885;42.596;23.044;2023-04-26T11:53:50;92097.09;;;14.60;57.68
15568;BME280;7885;42.596;23.044;2023-04-26T11:56:18;92103.56;;;14.53;58.03
15568;BME280;7885;42.596;23.044;2023-04-26T11:58:46;92077.84;;;14.38;58.05
15568;BME280;7885;42.596;23.044;2023-04-26T12:01:19;92107.06;;;14.41;58.01
15568;BME280;7885;42.596;23.044;2023-04-26T12:03:49;92107.72;;;14.45;58.40
15568;BME280;7885;42.596;23.044;2023-04-26T12:06:16;92109.06;;;14.53;58.47
15568;BME280;7885;42.596;23.044;2023-04-26T12:08:49;92110.31;;;14.87;58.73
15568;BME280;7885;42.596;23.044;2023-04-26T12:11:17;92101.06;;;15.18;56.99
15568;BME280;7885;42.596;23.044;2023-04-26T12:13:44;92097.25;;;15.16;56.08
15568;BME280;7885;42.596;23.044;2023-04-26T12:16:12;92095.78;;;15.24;57.21
15568;BME280;7885;42.596;23.044;2023-04-26T12:18:39;92087.47;;;15.15;57.66
15568;BME280;7885;42.596;23.044;2023-04-26T12:21:09;92103.16;;;15.14;57.97
15568;BME280;7885;42.596;23.044;2023-04-26T12:23:36;92106.63;;;14.81;56.50
15568;BME280;7885;42.596;23.044;2023-04-26T12:26:06;92105.56;;;14.40;55.79
15568;BME280;7885;42.596;23.044;2023-04-26T12:28:35;92112.72;;;14.22;57.17
15568;BME280;7885;42.596;23.044;2023-04-26T12:31:02;92089.75;;;14.19;58.14
15568;BME280;7885;42.596;23.044;2023-04-26T12:33:29;92109.66;;;14.32;57.37
15568;BME280;7885;42.596;23.044;2023-04-26T12:35:57;92097.06;;;14.22;57.07
15568;BME280;7885;42.596;23.044;2023-04-26T12:38:24;92084.25;;;14.19;56.99
15568;BME280;7885;42.596;23.044;2023-04-26T12:44:14;92097.94;;;14.32;58.52
15568;BME280;7885;42.596;23.044;2023-04-26T12:46:41;92091.28;;;14.20;57.68
15568;BME280;7885;42.596;23.044;2023-04-26T12:49:08;92089.84;;;14.28;56.91
15568;BME280;7885;42.596;23.044;2023-04-26T12:51:35;92093.25;;;14.32;56.36
15568;BME280;7885;42.596;23.044;2023-04-26T12:54:02;92087.38;;;14.46;57.09
15568;BME280;7885;42.596;23.044;2023-04-26T12:56:28;92088.56;;;14.45;56.71
15568;BME280;7885;42.596;23.044;2023-04-26T12:58:55;92074.44;;;14.34;57.79
15568;BME280;7885;42.596;23.044;2023-04-26T13:01:23;92089.69;;;14.48;59.05
15568;BME280;7885;42.596;23.044;2023-04-26T13:03:50;92094.91;;;14.55;58.62
15568;BME280;7885;42.596;23.044;2023-04-26T13:06:18;92095.03;;;14.51;58.70
15568;BME280;7885;42.596;23.044;2023-04-26T13:08:45;92097.44;;;14.37;59.46
15568;BME280;7885;42.596;23.044;2023-04-26T13:11:11;92096.88;;;14.42;59.17
15568;BME280;7885;42.596;23.044;2023-04-26T13:13:39;92101.59;;;14.41;59.42
15568;BME280;7885;42.596;23.044;2023-04-26T13:16:06;92102.16;;;14.61;58.95
15568;BME280;7885;42.596;23.044;2023-04-26T13:18:34;92108.81;;;14.60;56.84
15568;BME280;7885;42.596;23.044;2023-04-26T13:21:01;92102.03;;;14.52;57.14
15568;BME280;7885;42.596;23.044;2023-04-26T13:23:27;92114.75;;;14.46;57.27
15568;BME280;7885;42.596;23.044;2023-04-26T13:25:54;92113.06;;;14.24;56.56
15568;BME280;7885;42.596;23.044;2023-04-26T13:28:21;92109.41;;;14.14;56.61
15568;BME280;7885;42.596;23.044;2023-04-26T13:30:48;92116.84;;;14.01;58.12
15568;BME280;7885;42.596;23.044;2023-04-26T13:33:14;92126.13;;;13.91;60.66